createdAt,value
2019-01-29T00:02:10.543Z,77.91
2019-01-29T00:04:41.321Z,78.23
2019-01-29T00:07:12.100Z,78.35
2019-01-29T00:09:42.759Z,78.20
2019-01-29T00:12:13.435Z,77.90
2019-01-29T00:14:44.049Z,78.07
2019-01-29T00:17:14.650Z,77.87
2019-01-29T00:19:45.251Z,78.07
2019-01-29T00:22:15.997Z,78.61
2019-01-29T00:24:46.808Z,78.50
2019-01-29T00:27:17.439Z,78.62
2019-01-29T00:29:47.972Z,78.55
2019-01-29T00:32:18.752Z,78.66
2019-01-29T00:34:49.368Z,78.55
2019-01-29T00:37:19.919Z,78.62
2019-01-29T00:39:50.660Z,78.66
2019-01-29T00:42:21.482Z,78.46
2019-01-29T00:44:52.159Z,78.54
2019-01-29T00:47:22.858Z,78.27
2019-01-29T00:49:53.613Z,77.77
2019-01-29T00:52:24.307Z,78.12
2019-01-29T00:54:55.359Z,78.44
2019-01-29T00:57:26.071Z,78.48
2019-01-29T00:59:56.943Z,78.11
2019-01-29T01:02:27.841Z,78.29
2019-01-29T01:04:58.562Z,78.00
2019-01-29T01:07:29.333Z,77.54
2019-01-29T01:10:00.037Z,77.71
2019-01-29T01:12:30.741Z,77.50
2019-01-29T01:15:01.381Z,77.74
2019-01-29T01:17:32.173Z,78.04
2019-01-29T01:20:02.956Z,77.77
2019-01-29T01:22:33.757Z,77.95
2019-01-29T01:25:04.825Z,76.63
2019-01-29T01:27:35.988Z,77.25
2019-01-29T01:30:09.640Z,77.12
2019-01-29T01:32:40.290Z,77.75
2019-01-29T01:35:11.120Z,78.04
2019-01-29T01:37:41.752Z,78.21
2019-01-29T01:40:23.324Z,78.05
2019-01-29T01:42:54.600Z,77.88
2019-01-29T01:45:25.192Z,77.89
2019-01-29T01:47:55.770Z,77.81
2019-01-29T01:50:26.302Z,77.80
2019-01-29T01:52:59.349Z,77.59
2019-01-29T01:55:29.768Z,77.94
2019-01-29T01:58:00.492Z,78.17
2019-01-29T02:00:31.142Z,78.26
2019-01-29T02:03:01.953Z,78.10
2019-01-29T02:05:32.649Z,78.17
2019-01-29T02:08:03.487Z,78.17
2019-01-29T02:10:34.786Z,78.43
2019-01-29T02:13:05.602Z,78.21
2019-01-29T02:15:36.237Z,78.65
2019-01-29T02:18:07.295Z,77.93
2019-01-29T02:20:38.124Z,78.32
2019-01-29T02:23:08.859Z,78.91
2019-01-29T02:25:39.539Z,79.04
2019-01-29T02:28:10.351Z,79.12
2019-01-29T02:30:41.049Z,79.22
2019-01-29T02:33:11.789Z,79.71
2019-01-29T02:35:42.654Z,80.03
2019-01-29T02:38:13.324Z,79.93
2019-01-29T02:40:44.264Z,79.76
2019-01-29T02:43:15.101Z,79.86
2019-01-29T02:45:45.762Z,79.83
2019-01-29T02:48:16.481Z,79.93
2019-01-29T02:50:47.272Z,79.95
2019-01-29T02:53:18.634Z,80.02
2019-01-29T02:55:49.710Z,80.26
2019-01-29T02:58:20.575Z,80.41
2019-01-29T03:00:51.451Z,80.32
2019-01-29T03:03:22.162Z,80.31
2019-01-29T03:05:53.010Z,80.45
2019-01-29T03:08:23.626Z,80.56
2019-01-29T03:10:54.389Z,80.81
2019-01-29T03:13:25.178Z,80.89
2019-01-29T03:15:56.113Z,81.13
2019-01-29T03:18:26.760Z,81.36
2019-01-29T03:20:57.540Z,81.69
2019-01-29T03:23:28.137Z,82.08
2019-01-29T03:25:58.832Z,82.37
2019-01-29T03:28:29.533Z,82.74
2019-01-29T03:31:00.381Z,83.02
2019-01-29T03:33:30.933Z,83.19
2019-01-29T03:36:01.607Z,83.47
2019-01-29T03:38:32.321Z,83.91
2019-01-29T03:41:03.063Z,84.29
2019-01-29T03:43:33.758Z,84.55
2019-01-29T03:46:04.526Z,85.04
2019-01-29T03:48:35.206Z,85.55
2019-01-29T03:51:06.012Z,85.87
2019-01-29T03:53:38.240Z,86.10
2019-01-29T03:56:09.367Z,86.37
2019-01-29T03:58:40.243Z,86.54
2019-01-29T04:01:10.985Z,86.78
2019-01-29T04:03:41.767Z,86.91
2019-01-29T04:06:12.443Z,86.99
2019-01-29T04:08:43.164Z,87.13
2019-01-29T04:11:13.714Z,87.21
2019-01-29T04:13:44.432Z,87.37
2019-01-29T04:16:15.129Z,87.56
2019-01-29T04:18:45.762Z,87.69
2019-01-29T04:21:16.426Z,87.86
2019-01-29T04:23:48.011Z,88.15
2019-01-29T04:26:18.860Z,88.30
2019-01-29T04:28:49.529Z,88.40
2019-01-29T04:31:20.216Z,88.42
2019-01-29T04:33:50.812Z,88.45
2019-01-29T04:36:21.524Z,88.41
2019-01-29T04:38:52.225Z,88.40
2019-01-29T04:41:22.944Z,88.38
2019-01-29T04:43:53.880Z,88.30
2019-01-29T04:46:24.483Z,88.27
2019-01-29T04:48:55.011Z,88.21
2019-01-29T04:51:25.743Z,88.20
2019-01-29T04:53:57.648Z,88.23
2019-01-29T04:56:28.702Z,88.18
2019-01-29T04:58:59.516Z,88.12
2019-01-29T05:01:30.252Z,88.14
2019-01-29T05:04:00.995Z,88.07
2019-01-29T05:06:31.736Z,88.10
2019-01-29T05:09:02.586Z,88.15
2019-01-29T05:11:33.198Z,88.18
2019-01-29T05:14:04.001Z,88.18
2019-01-29T05:16:34.702Z,88.17
2019-01-29T05:19:05.940Z,88.12
2019-01-29T05:21:36.619Z,88.14
2019-01-29T05:24:07.428Z,88.12
2019-01-29T05:26:38.063Z,88.07
2019-01-29T05:29:08.851Z,88.05
2019-01-29T05:31:39.589Z,88.03
2019-01-29T05:34:10.280Z,88.05
2019-01-29T05:36:40.931Z,88.10
2019-01-29T05:39:12.288Z,88.04
2019-01-29T05:41:43.077Z,88.01
2019-01-29T05:44:14.035Z,88.01
2019-01-29T05:46:44.700Z,87.96
2019-01-29T05:49:15.437Z,87.93
2019-01-29T05:51:46.077Z,87.96
2019-01-29T05:54:16.828Z,87.96
2019-01-29T05:56:47.599Z,87.96
2019-01-29T05:59:18.314Z,87.97
2019-01-29T06:01:48.973Z,87.87
2019-01-29T06:04:19.751Z,87.81
2019-01-29T06:06:50.381Z,87.76
2019-01-29T06:09:20.976Z,87.76
2019-01-29T06:11:51.702Z,87.67
2019-01-29T06:14:22.317Z,87.67
2019-01-29T06:16:52.884Z,87.66
2019-01-29T06:19:23.642Z,87.60
2019-01-29T06:21:54.487Z,87.58
2019-01-29T06:24:26.086Z,87.43
2019-01-29T06:26:56.960Z,87.28
2019-01-29T06:29:27.926Z,87.23
2019-01-29T06:31:58.778Z,87.11
2019-01-29T06:34:29.462Z,87.14
2019-01-29T06:37:00.246Z,87.07
2019-01-29T06:39:30.921Z,86.97
2019-01-29T06:42:01.564Z,86.81
2019-01-29T06:44:32.071Z,86.75
2019-01-29T06:47:02.605Z,86.73
2019-01-29T06:49:33.188Z,86.54
2019-01-29T06:52:03.916Z,86.49
2019-01-29T06:54:34.564Z,86.30
2019-01-29T06:57:05.274Z,86.33
2019-01-29T06:59:35.897Z,85.98
2019-01-29T07:02:08.321Z,85.87
2019-01-29T07:04:39.444Z,85.73
2019-01-29T07:07:10.158Z,85.55
2019-01-29T07:09:40.750Z,85.40
2019-01-29T07:12:11.439Z,85.40
2019-01-29T07:14:41.991Z,85.20
2019-01-29T07:17:31.500Z,85.22
2019-01-29T07:20:07.301Z,85.30
2019-01-29T07:22:37.940Z,85.38
2019-01-29T07:25:11.185Z,85.49
2019-01-29T07:27:41.729Z,85.46
2019-01-29T07:30:15.602Z,85.46
2019-01-29T07:32:46.370Z,85.45
2019-01-29T07:35:17.018Z,85.36
2019-01-29T07:37:47.681Z,85.43
2019-01-29T07:40:18.364Z,85.50
2019-01-29T07:42:48.951Z,85.37
2019-01-29T07:45:19.819Z,85.26
2019-01-29T07:47:50.485Z,85.44
2019-01-29T07:50:21.209Z,85.40
2019-01-29T07:52:51.797Z,85.47
2019-01-29T07:55:22.519Z,85.59
2019-01-29T07:57:53.080Z,85.81
2019-01-29T08:00:23.652Z,86.35
2019-01-29T08:02:54.189Z,86.99
2019-01-29T08:05:24.733Z,87.72
2019-01-29T08:07:55.357Z,88.23
2019-01-29T08:10:26.062Z,88.47
2019-01-29T08:12:56.895Z,88.84
2019-01-29T08:15:27.717Z,89.19
2019-01-29T08:17:58.611Z,89.50
2019-01-29T08:20:29.124Z,89.60
2019-01-29T08:22:59.857Z,89.71
2019-01-29T08:25:30.358Z,89.81
2019-01-29T08:28:01.287Z,89.87
2019-01-29T08:30:31.891Z,89.78
2019-01-29T08:33:02.558Z,89.81
2019-01-29T08:35:33.398Z,89.68
2019-01-29T08:38:03.997Z,89.43
2019-01-29T08:40:34.527Z,89.37
2019-01-29T08:43:05.332Z,89.30
2019-01-29T08:45:36.224Z,89.16
2019-01-29T08:48:07.020Z,89.01
2019-01-29T08:50:37.596Z,88.58
2019-01-29T08:53:08.267Z,88.27
2019-01-29T08:55:45.252Z,87.92
2019-01-29T08:58:27.280Z,87.53
2019-01-29T09:01:05.682Z,87.00
2019-01-29T09:03:38.833Z,86.74
2019-01-29T09:06:10.228Z,86.00
2019-01-29T09:08:40.788Z,85.73
2019-01-29T09:11:11.356Z,85.47
2019-01-29T09:13:41.999Z,85.21
2019-01-29T09:16:12.577Z,85.14
2019-01-29T09:18:43.134Z,84.93
2019-01-29T09:21:13.712Z,84.95
2019-01-29T09:23:44.329Z,84.95
2019-01-29T09:26:14.985Z,84.71
2019-01-29T09:28:45.598Z,84.24
2019-01-29T09:31:16.183Z,84.61
2019-01-29T09:33:46.827Z,84.60
2019-01-29T09:36:17.326Z,84.50
2019-01-29T09:38:47.902Z,84.22
2019-01-29T09:41:18.459Z,84.17
2019-01-29T09:43:49.108Z,84.23
2019-01-29T09:46:19.730Z,84.32
2019-01-29T09:48:50.506Z,84.01
2019-01-29T09:51:21.173Z,84.07
2019-01-29T09:53:51.782Z,83.96
2019-01-29T09:56:22.370Z,83.65
2019-01-29T09:58:52.998Z,83.64
2019-01-29T10:01:23.523Z,83.62
2019-01-29T10:03:54.074Z,83.66
2019-01-29T10:06:24.726Z,83.72
2019-01-29T10:08:55.285Z,83.69
2019-01-29T10:11:25.727Z,83.49
2019-01-29T10:13:56.328Z,83.80
2019-01-29T10:16:30.917Z,83.72
2019-01-29T10:19:01.356Z,83.50
2019-01-29T10:21:31.921Z,83.58
2019-01-29T10:24:02.389Z,83.52
2019-01-29T10:26:32.919Z,83.43
2019-01-29T10:29:03.638Z,83.56
2019-01-29T10:31:34.359Z,83.54
2019-01-29T10:34:05.154Z,83.23
2019-01-29T10:36:36.533Z,83.20
2019-01-29T10:39:11.266Z,82.86
2019-01-29T10:41:41.777Z,82.30
2019-01-29T10:44:12.457Z,81.69
2019-01-29T10:46:43.032Z,81.20
2019-01-29T10:49:13.589Z,80.50
2019-01-29T10:51:44.249Z,80.64
2019-01-29T10:54:14.839Z,80.11
2019-01-29T10:56:45.526Z,79.75
2019-01-29T10:59:16.152Z,80.11
2019-01-29T11:01:46.669Z,79.82
2019-01-29T11:04:17.296Z,80.08
2019-01-29T11:06:48.443Z,79.41
2019-01-29T11:09:25.372Z,79.77
2019-01-29T11:11:51.651Z,79.04
2019-01-29T11:14:22.240Z,78.68
2019-01-29T11:16:52.812Z,78.37
2019-01-29T11:19:23.409Z,78.45
2019-01-29T11:21:55.869Z,77.16
2019-01-29T11:24:26.348Z,77.48
2019-01-29T11:26:56.985Z,76.69
2019-01-29T11:29:27.566Z,76.62
2019-01-29T11:31:58.179Z,76.41
2019-01-29T11:34:28.872Z,76.27
2019-01-29T11:36:59.483Z,75.96
2019-01-29T11:39:30.956Z,76.26
2019-01-29T11:42:01.542Z,75.70
2019-01-29T11:44:33.819Z,74.87
2019-01-29T11:47:06.461Z,74.88
2019-01-29T11:49:36.807Z,74.56
2019-01-29T11:52:07.269Z,73.27
2019-01-29T11:54:37.805Z,72.50
2019-01-29T11:57:08.455Z,71.63
2019-01-29T11:59:39.080Z,70.42
2019-01-29T12:02:09.748Z,69.72
2019-01-29T12:04:40.489Z,69.34
2019-01-29T12:07:11.071Z,69.16
2019-01-29T12:09:41.617Z,69.65
2019-01-29T12:12:12.560Z,67.38
2019-01-29T12:14:43.129Z,66.72
2019-01-29T12:17:13.687Z,65.22
2019-01-29T12:19:44.263Z,65.66
2019-01-29T12:22:14.812Z,65.51
2019-01-29T12:24:45.742Z,65.51
2019-01-29T12:27:16.444Z,65.43
2019-01-29T12:29:47.092Z,65.91
2019-01-29T12:32:17.806Z,64.70
2019-01-29T12:34:48.368Z,65.91
2019-01-29T12:37:19.007Z,65.71
2019-01-29T12:39:49.745Z,66.30
2019-01-29T12:42:20.508Z,65.31
2019-01-29T12:44:51.031Z,66.32
2019-01-29T12:47:21.640Z,66.44
2019-01-29T12:49:52.327Z,66.19
2019-01-29T12:52:29.659Z,66.99
2019-01-29T12:55:00.255Z,67.74
2019-01-29T12:57:30.804Z,67.85
2019-01-29T13:00:01.271Z,67.51
2019-01-29T13:02:31.968Z,67.01
2019-01-29T13:05:05.000Z,65.96
2019-01-29T13:07:35.586Z,67.03
2019-01-29T13:10:10.812Z,65.55
2019-01-29T13:12:41.482Z,64.41
2019-01-29T13:15:14.702Z,63.00
2019-01-29T13:17:45.264Z,63.09
2019-01-29T13:20:16.263Z,63.03
2019-01-29T13:22:46.747Z,65.16
2019-01-29T13:25:17.802Z,65.06
2019-01-29T13:27:48.367Z,65.57
2019-01-29T13:30:24.583Z,66.31
2019-01-29T13:32:55.536Z,67.49
2019-01-29T13:35:30.067Z,68.88
2019-01-29T13:38:00.693Z,68.30
2019-01-29T13:40:31.470Z,67.59
2019-01-29T13:43:02.112Z,67.28
2019-01-29T13:45:32.726Z,67.30
2019-01-29T13:48:03.166Z,67.96
2019-01-29T13:50:38.756Z,68.34
2019-01-29T13:53:09.400Z,68.17
2019-01-29T13:55:39.953Z,67.15
2019-01-29T13:58:10.996Z,68.91
2019-01-29T14:00:41.804Z,69.45
2019-01-29T14:03:13.572Z,68.96
2019-01-29T14:05:44.367Z,67.71
2019-01-29T14:08:15.086Z,67.31
2019-01-29T14:10:45.794Z,67.90
2019-01-29T14:13:16.476Z,67.73
2019-01-29T14:15:58.071Z,66.91
2019-01-29T14:18:32.142Z,66.01
2019-01-29T14:21:03.427Z,65.88
2019-01-29T14:23:34.061Z,66.81
2019-01-29T14:26:04.719Z,67.88
2019-01-29T14:28:36.572Z,67.10
2019-01-29T14:31:07.613Z,66.89
2019-01-29T14:33:39.336Z,67.47
2019-01-29T14:36:16.393Z,67.95
2019-01-29T14:39:22.656Z,69.14
2019-01-29T14:41:54.601Z,69.51
2019-01-29T14:44:34.779Z,69.97
2019-01-29T14:47:05.605Z,69.94
2019-01-29T14:49:36.073Z,70.13
2019-01-29T14:52:10.150Z,70.93
2019-01-29T14:54:40.881Z,71.18
2019-01-29T14:57:11.546Z,72.05
2019-01-29T14:59:42.112Z,72.63
2019-01-29T15:02:12.711Z,73.38
2019-01-29T15:04:43.381Z,74.24
2019-01-29T15:07:14.097Z,74.64
2019-01-29T15:09:44.745Z,75.19
2019-01-29T15:12:15.348Z,75.23
2019-01-29T15:14:46.086Z,75.70
2019-01-29T15:17:35.993Z,75.78
2019-01-29T15:20:09.480Z,75.76
2019-01-29T15:22:40.150Z,76.00
2019-01-29T15:25:12.602Z,76.55
2019-01-29T15:27:43.211Z,76.93
2019-01-29T15:30:22.899Z,77.02
2019-01-29T15:32:53.640Z,77.66
2019-01-29T15:35:24.311Z,77.81
2019-01-29T15:37:54.956Z,78.20
2019-01-29T15:40:25.678Z,78.27
2019-01-29T15:42:56.417Z,78.34
2019-01-29T15:45:27.072Z,78.44
2019-01-29T15:47:58.164Z,78.63
2019-01-29T15:50:30.995Z,78.56
2019-01-29T15:53:01.841Z,78.64
2019-01-29T15:55:32.518Z,78.79
2019-01-29T15:58:03.139Z,79.02
2019-01-29T16:00:34.177Z,79.17
2019-01-29T16:03:04.936Z,79.58
2019-01-29T16:05:35.738Z,79.77
2019-01-29T16:08:07.965Z,79.79
2019-01-29T16:10:39.675Z,79.75
2019-01-29T16:13:10.671Z,79.35
2019-01-29T16:15:41.498Z,78.93
2019-01-29T16:18:12.475Z,79.24
2019-01-29T16:20:43.043Z,79.77
2019-01-29T16:23:13.743Z,79.90
2019-01-29T16:25:48.361Z,79.89
2019-01-29T16:28:19.050Z,79.76
2019-01-29T16:30:49.709Z,80.06
2019-01-29T16:33:20.521Z,80.00
2019-01-29T16:35:51.145Z,80.39
2019-01-29T16:38:21.921Z,80.89
2019-01-29T16:41:00.102Z,81.03
2019-01-29T16:43:26.187Z,81.14
2019-01-29T16:45:56.847Z,81.25
2019-01-29T16:48:27.491Z,81.27
2019-01-29T16:50:58.020Z,81.39
2019-01-29T16:53:28.692Z,81.43
2019-01-29T16:55:59.242Z,81.39
2019-01-29T16:58:29.890Z,80.64
2019-01-29T17:01:00.577Z,79.70
2019-01-29T17:03:31.221Z,79.79
2019-01-29T17:06:05.467Z,79.95
2019-01-29T17:08:36.092Z,80.44
2019-01-29T17:11:08.528Z,80.85
2019-01-29T17:13:41.365Z,80.60
2019-01-29T17:16:15.166Z,79.86
2019-01-29T17:18:47.025Z,79.92
2019-01-29T17:21:18.859Z,80.29
2019-01-29T17:23:49.617Z,80.65
2019-01-29T17:26:20.596Z,80.69
2019-01-29T17:28:51.411Z,80.49
2019-01-29T17:31:22.267Z,80.44
2019-01-29T17:33:53.071Z,80.45
2019-01-29T17:36:27.116Z,80.54
2019-01-29T17:38:57.920Z,80.52
2019-01-29T17:41:28.683Z,80.67
2019-01-29T17:43:59.602Z,80.68
2019-01-29T17:46:33.940Z,80.75
2019-01-29T17:49:04.680Z,80.13
2019-01-29T17:51:37.769Z,79.88
2019-01-29T17:54:13.326Z,80.04
2019-01-29T17:56:44.004Z,80.15
2019-01-29T17:59:15.713Z,80.16
2019-01-29T18:01:47.431Z,80.05
2019-01-29T18:04:19.296Z,80.00
2019-01-29T18:06:51.232Z,80.02
2019-01-29T18:09:22.978Z,80.12
2019-01-29T18:11:53.794Z,79.82
2019-01-29T18:14:28.088Z,79.46
2019-01-29T18:16:59.493Z,79.54
2019-01-29T18:19:34.912Z,79.61
2019-01-29T18:22:21.050Z,79.75
2019-01-29T18:24:51.830Z,80.22
2019-01-29T18:27:26.830Z,80.50
2019-01-29T18:30:03.126Z,80.81
2019-01-29T18:32:38.937Z,81.05
2019-01-29T18:35:18.562Z,80.76
2019-01-29T18:37:59.571Z,80.84
2019-01-29T18:40:38.916Z,81.18
2019-01-29T18:43:10.799Z,81.18
2019-01-29T18:45:51.316Z,81.30
2019-01-29T18:48:30.290Z,81.31
2019-01-29T18:51:06.710Z,81.33
2019-01-29T18:53:40.659Z,81.18
2019-01-29T18:56:20.396Z,81.48
2019-01-29T18:58:54.236Z,81.53
2019-01-29T19:01:28.185Z,81.50
2019-01-29T19:03:59.914Z,81.50
2019-01-29T19:06:31.678Z,81.37
2019-01-29T19:09:08.100Z,81.25
2019-01-29T19:11:41.991Z,81.30
2019-01-29T19:14:22.733Z,80.91
2019-01-29T19:16:53.434Z,81.20
2019-01-29T19:19:28.641Z,81.60
2019-01-29T19:22:07.149Z,82.16
2019-01-29T19:24:50.546Z,82.65
2019-01-29T19:27:24.760Z,82.71
2019-01-29T19:30:07.479Z,83.13
2019-01-29T19:32:40.584Z,83.56
2019-01-29T19:35:13.829Z,83.31
2019-01-29T19:37:46.040Z,83.87
2019-01-29T19:40:18.422Z,85.10
2019-01-29T19:42:54.338Z,85.77
2019-01-29T19:45:33.925Z,85.93
2019-01-29T19:48:06.291Z,85.79
2019-01-29T19:53:30.852Z,86.78
2019-01-29T19:56:04.946Z,87.14
2019-01-29T19:58:39.431Z,87.37
2019-01-29T20:01:12.823Z,87.45
2019-01-29T20:03:48.950Z,87.69
2019-01-29T20:06:22.717Z,87.75
2019-01-29T20:08:56.499Z,87.92
2019-01-29T20:11:30.753Z,88.28
2019-01-29T20:14:06.086Z,88.73
2019-01-29T20:16:36.865Z,89.06
2019-01-29T20:19:11.667Z,89.09
2019-01-29T20:21:49.727Z,89.15
2019-01-29T20:24:29.090Z,89.26
2019-01-29T20:27:01.059Z,89.30
2019-01-29T20:29:33.858Z,89.13
2019-01-29T20:32:04.594Z,88.54
2019-01-29T20:34:42.905Z,87.82
2019-01-29T20:37:16.046Z,87.04
2019-01-29T20:39:50.782Z,86.62
2019-01-29T20:42:22.673Z,86.34
2019-01-29T20:44:57.790Z,85.95
2019-01-29T20:47:47.127Z,85.86
2019-01-29T20:50:42.374Z,86.16
2019-01-29T20:53:14.931Z,86.27
2019-01-29T20:55:49.222Z,86.28
2019-01-29T20:58:21.041Z,86.06
2019-01-29T21:00:51.883Z,85.94
2019-01-29T21:03:24.301Z,85.94
2019-01-29T21:05:56.678Z,85.92
2019-01-29T21:08:36.071Z,86.10
2019-01-29T21:11:09.065Z,86.29
2019-01-29T21:13:58.855Z,86.22
2019-01-29T21:16:36.052Z,85.92
2019-01-29T21:19:13.451Z,85.72
2019-01-29T21:21:47.129Z,85.83
2019-01-29T21:24:24.103Z,85.83
2019-01-29T21:26:54.859Z,85.78
2019-01-29T21:29:31.082Z,85.89
2019-01-29T21:32:03.847Z,86.03
2019-01-29T21:34:34.503Z,86.20
2019-01-29T21:37:10.068Z,86.33
2019-01-29T21:39:43.756Z,86.45
2019-01-29T21:42:17.940Z,86.56
2019-01-29T21:44:48.631Z,86.66
2019-01-29T21:47:20.884Z,86.64
2019-01-29T21:49:52.001Z,86.55
2019-01-29T21:52:22.679Z,86.70
2019-01-29T21:54:54.544Z,86.75
2019-01-29T21:57:26.648Z,86.78
2019-01-29T21:59:57.453Z,86.80
2019-01-29T22:02:28.122Z,86.83
2019-01-29T22:04:58.644Z,86.77
2019-01-29T22:07:29.737Z,86.74
2019-01-29T22:10:00.664Z,86.70
2019-01-29T22:12:31.204Z,86.71
2019-01-29T22:15:01.810Z,86.71
2019-01-29T22:17:32.326Z,86.69
2019-01-29T22:20:02.936Z,86.72
2019-01-29T22:22:34.102Z,86.73
2019-01-29T22:25:06.722Z,86.74
2019-01-29T22:27:37.178Z,86.70
2019-01-29T22:30:15.698Z,86.72
2019-01-29T22:32:46.386Z,86.84
2019-01-29T22:35:17.461Z,86.96
2019-01-29T22:37:47.961Z,86.99
2019-01-29T22:40:21.474Z,87.14
2019-01-29T22:42:52.168Z,87.21
2019-01-29T22:45:22.945Z,87.22
2019-01-29T22:47:53.542Z,87.17
2019-01-29T22:50:31.001Z,87.32
2019-01-29T22:53:01.676Z,87.46
2019-01-29T22:55:32.418Z,87.58
2019-01-29T22:58:03.343Z,87.73
2019-01-29T23:01:02.134Z,87.75
2019-01-29T23:03:41.150Z,87.78
2019-01-29T23:06:50.821Z,87.80
2019-01-29T23:09:21.620Z,87.76
2019-01-29T23:11:53.626Z,87.78
2019-01-29T23:14:24.346Z,87.77
2019-01-29T23:16:54.906Z,87.70
2019-01-29T23:19:25.583Z,87.81
2019-01-29T23:21:56.265Z,87.83
2019-01-29T23:24:27.048Z,87.76
2019-01-29T23:26:57.756Z,87.70
2019-01-29T23:29:28.373Z,87.73
2019-01-29T23:31:58.977Z,87.74
2019-01-29T23:34:29.765Z,87.77
2019-01-29T23:37:00.804Z,87.76
2019-01-29T23:39:31.965Z,87.74
2019-01-29T23:42:02.636Z,87.59
2019-01-29T23:44:33.664Z,87.43
2019-01-29T23:47:04.469Z,87.35
2019-01-29T23:49:34.989Z,87.28
2019-01-29T23:52:05.769Z,87.16
2019-01-29T23:54:36.967Z,87.07
2019-01-29T23:57:07.657Z,86.86
2019-01-29T23:59:38.354Z,86.50
